Decoded Metar for UMMS (MINSK 2 in BELARUS) (IATA:MSQ) | Meteo·Mobile Aviation Weather
aviador You're here:

UMMS Decoded Metar

MINSK 2 in BELARUS
Report Time2019-02-21 23:30:00
UTC Time2019-02-21 23:39:34
Flight Rules vfr VFR
Wind340° at 12 Gusting to 17 kt
W.Decomp.*RWY 31: 11.1 kt HW 4.5 kt RCW
W.Rank340° ranks 16
Current wind is above 340° avg. (9.0)
Visibility9999 m
Phenomena:N/A
Clouds:N/A
Expected CloudBase > 2,400 ft AGL from Temp-Dew spread
CeilingNone
Temp-7°C (ISA -21)
Dew Point-13°C (63% RH)
AAT-14.6°C
QNH1021 hPa
Density Alt-2,129 ft
Elevation673 ft
Report Wrong Elevation
Raw Report
METAR UMMS 212330Z 34006G09MPS CAVOK M07/M13 Q1021
R31/190050 NOSIG=

Extra information for UMMS:More info

Metar Taf Metar & Taf Last 4 Metars F.Rules Stats Wind Profile Meteogram Temp Stats Airport Information Weather charts Add Link Nearby VenuesMetar ALERT Operation Metar Decoded Social comments